KDUG/DUG METAR and TAF weather

Enter ICAO airport designator
Station Type Date Time Source
KDUG METAR 2019/08/19 21:56 UTC NOAA

KDUG 192156Z AUTO VRB04KT 10SM SCT120 36/03 A3005 RMK AO2 SLP093 T03560033


Station Type Date Time Source
KDUG Decoded METAR 2019/08/19 21:56 UTC NOAA

BISBEE DOUGLAS INTERNATIONAL AIRPORT , AZ, United States (KDUG) 31-28N 109-36W
Aug 19, 2019 - 05:56 PM EDT / 2019.08.19 2156 UTC
Wind: Variable at 5 MPH (4 KT):0
Visibility: 10 mile(s):0
Sky conditions: partly cloudy
Temperature: 96.1 F (35.6 C)
Dew Point: 37.9 F (3.3 C)
Relative Humidity: 13%
Pressure (altimeter): 30.05 in. Hg (1017 hPa)
ob: KDUG 192156Z AUTO VRB04KT 10SM SCT120 36/03 A3005 RMK AO2 SLP093 T03560033
cycle: 22

Station Type Date Time Source
KDUG TAF 2019/08/19 18:36 UTC NOAA

TAF KDUG 191735Z 1918/2018 34007KT P6SM SCT100
FM200200 02005KT P6SM BKN120
FM201000 VRB04KT P6SM FEW120

Example: see airport list